Time;durP1;ratioP1;P1;durP2;ratioP2;P2;SDS_P1;SDS_P2;PMS_P1;PMS_P2;Temp;Humidity;BMP_temperature;BMP_pressure;BME280_temperature;BME280_humidity;BME280_pressure;Samples;Min_cycle;Max_cycle;Signal;HPM_P1;HPM_P2
2022/11/01 00:01:58;;;;;;;9.65;5.85;;;12.90;99.90;;;;;;4994308;28;20054;-73
2022/11/01 00:04:24;;;;;;;8.85;5.72;;;12.90;99.90;;;;;;4992472;28;20046;-73
2022/11/01 00:06:50;;;;;;;8.02;6.30;;;12.90;99.90;;;;;;4993573;28;20042;-73
2022/11/01 00:09:16;;;;;;;7.93;5.30;;;13.00;99.90;;;;;;4993836;28;20082;-74
2022/11/01 00:11:42;;;;;;;8.68;5.40;;;13.00;99.90;;;;;;4993199;28;20040;-73
2022/11/01 00:14:12;;;;;;;7.95;5.10;;;13.00;99.90;;;;;;5003879;28;20048;-74
2022/11/01 00:16:37;;;;;;;10.27;5.40;;;13.00;99.90;;;;;;5020536;28;20084;-74
2022/11/01 00:19:03;;;;;;;7.57;5.28;;;13.00;99.90;;;;;;5026846;28;20437;-74
2022/11/01 00:21:29;;;;;;;10.60;5.35;;;13.00;99.90;;;;;;5032345;28;20599;-73
2022/11/01 00:23:54;;;;;;;8.88;5.18;;;13.00;99.90;;;;;;5012846;28;20394;-74
2022/11/01 00:26:22;;;;;;;6.80;4.72;;;13.10;99.90;;;;;;5012441;28;20204;-73
2022/11/01 00:28:48;;;;;;;11.35;4.78;;;13.10;99.90;;;;;;5011580;28;20084;-74
2022/11/01 00:31:16;;;;;;;8.48;5.13;;;13.20;99.90;;;;;;5021907;28;20045;-74
2022/11/01 00:33:42;;;;;;;8.70;4.70;;;13.20;99.90;;;;;;5032108;28;20049;-73
2022/11/01 00:36:08;;;;;;;7.57;4.75;;;13.30;99.90;;;;;;5032121;28;20394;-73
2022/11/01 00:38:34;;;;;;;7.68;4.80;;;13.40;99.90;;;;;;5032216;28;20147;-74
2022/11/01 00:41:02;;;;;;;7.63;5.38;;;13.40;99.90;;;;;;5031718;28;20449;-73
2022/11/01 00:43:29;;;;;;;8.70;4.60;;;13.60;99.90;;;;;;5032079;28;20076;-73
2022/11/01 00:45:55;;;;;;;7.60;4.43;;;13.60;99.90;;;;;;5014221;28;20048;-74
2022/11/01 00:48:21;;;;;;;6.78;4.32;;;13.70;99.90;;;;;;5021151;28;20453;-73
2022/11/01 00:50:47;;;;;;;8.75;4.20;;;13.80;99.90;;;;;;5010792;28;20049;-73
2022/11/01 00:53:13;;;;;;;6.57;4.20;;;13.80;99.90;;;;;;5012230;28;20096;-74
2022/11/01 00:55:39;;;;;;;8.88;4.50;;;13.90;99.90;;;;;;5011807;28;20038;-73
2022/11/01 00:58:05;;;;;;;6.47;4.10;;;14.00;99.90;;;;;;5011958;28;20056;-73
2022/11/01 01:00:31;;;;;;;8.13;4.97;;;14.00;99.90;;;;;;5012078;28;20116;-73
2022/11/01 01:02:56;;;;;;;9.57;4.28;;;14.10;99.90;;;;;;5012307;28;20053;-73
2022/11/01 01:05:22;;;;;;;7.45;5.00;;;14.10;99.90;;;;;;5010286;28;20115;-74
2022/11/01 01:07:48;;;;;;;6.00;4.28;;;14.20;99.90;;;;;;5011999;28;20046;-73
2022/11/01 01:10:14;;;;;;;8.48;5.13;;;14.20;99.90;;;;;;4994660;28;20061;-73
2022/11/01 01:12:39;;;;;;;7.22;4.40;;;14.20;99.90;;;;;;5011933;28;20367;-73
2022/11/01 01:15:06;;;;;;;8.73;4.50;;;14.20;99.90;;;;;;5024431;28;20440;-73
2022/11/01 01:17:32;;;;;;;7.53;4.57;;;14.30;99.90;;;;;;5030798;28;20390;-73
2022/11/01 01:19:57;;;;;;;7.20;4.20;;;14.30;99.90;;;;;;5013990;28;20038;-74
2022/11/01 01:22:23;;;;;;;7.47;4.50;;;14.30;99.90;;;;;;5022260;28;20073;-73
2022/11/01 01:24:49;;;;;;;8.05;4.05;;;14.40;99.90;;;;;;5011807;28;20147;-73
2022/11/01 01:27:16;;;;;;;9.70;4.00;;;14.40;99.90;;;;;;5011591;28;20037;-73
2022/11/01 01:29:43;;;;;;;4.93;3.92;;;14.40;99.90;;;;;;5013302;28;20045;-73
2022/11/01 01:32:13;;;;;;;10.38;4.15;;;14.40;99.90;;;;;;5020104;28;20049;-74
2022/11/01 01:34:39;;;;;;;6.28;4.10;;;14.50;99.90;;;;;;5021411;28;20048;-73
2022/11/01 01:37:06;;;;;;;8.40;4.28;;;14.50;99.90;;;;;;5031286;28;20053;-73
2022/11/01 01:39:32;;;;;;;5.85;3.47;;;14.60;99.90;;;;;;5015959;28;20041;-72
2022/11/01 01:41:58;;;;;;;8.25;3.90;;;14.60;99.90;;;;;;5011425;28;20081;-73
2022/11/01 01:44:55;;;;;;;7.85;4.20;;;14.60;99.90;;;;;;5011725;28;20498;-73
2022/11/01 01:47:27;;;;;;;6.60;3.50;;;14.60;99.90;;;;;;5020654;28;20087;-73
2022/11/01 01:49:59;;;;;;;9.18;4.30;;;14.60;99.90;;;;;;5031176;28;20041;-73
2022/11/01 01:52:29;;;;;;;6.68;3.65;;;14.60;99.90;;;;;;5031002;28;20049;-72
2022/11/01 01:54:56;;;;;;;10.43;3.92;;;14.60;99.90;;;;;;5031068;28;20042;-73
2022/11/01 01:57:22;;;;;;;5.75;3.58;;;14.70;99.90;;;;;;5014761;28;20055;-73
2022/11/01 01:59:48;;;;;;;9.95;4.50;;;14.70;99.90;;;;;;5013002;28;20050;-74
2022/11/01 02:02:16;;;;;;;6.38;3.67;;;14.70;99.90;;;;;;5019727;28;20497;-72
2022/11/01 02:04:51;;;;;;;9.90;3.80;;;14.70;99.90;;;;;;5020581;28;20050;-73
2022/11/01 02:07:16;;;;;;;6.35;4.20;;;14.70;99.90;;;;;;5031086;28;20332;-73
2022/11/01 02:09:43;;;;;;;5.65;3.65;;;14.60;99.90;;;;;;5015617;28;20045;-73
2022/11/01 02:12:11;;;;;;;7.60;3.58;;;14.70;99.90;;;;;;5011033;28;20125;-73
2022/11/01 02:14:41;;;;;;;6.65;3.58;;;14.70;99.90;;;;;;5011017;28;20038;-73
2022/11/01 02:17:06;;;;;;;6.10;3.83;;;14.70;99.90;;;;;;4999762;28;20553;-73
2022/11/01 02:19:57;;;;;;;7.65;3.95;;;14.70;99.90;;;;;;5030848;28;20104;-73
2022/11/01 02:22:53;;;;;;;7.25;3.70;;;14.70;99.90;;;;;;5031127;28;20049;-73
2022/11/01 02:25:50;;;;;;;6.80;3.70;;;14.60;99.90;;;;;;5031016;28;20041;-73
2022/11/01 02:28:44;;;;;;;8.98;4.35;;;14.60;99.90;;;;;;5023862;28;20045;-73
2022/11/01 02:31:44;;;;;;;5.95;3.65;;;14.60;99.90;;;;;;5001820;28;20525;-73
2022/11/01 02:34:27;;;;;;;7.30;3.90;;;14.70;99.90;;;;;;5030932;28;20045;-73
2022/11/01 02:36:59;;;;;;;7.03;4.05;;;14.70;99.90;;;;;;5014023;28;20117;-73
2022/11/01 02:39:32;;;;;;;7.88;4.55;;;14.60;99.90;;;;;;5011175;28;20056;-72
2022/11/01 02:42:08;;;;;;;5.93;3.38;;;14.70;99.90;;;;;;5011148;28;20061;-73
2022/11/01 02:44:41;;;;;;;8.38;3.85;;;14.70;99.90;;;;;;5020794;28;20371;-74
2022/11/01 02:47:10;;;;;;;6.70;3.63;;;14.70;99.90;;;;;;5030707;28;20396;-73
2022/11/01 02:49:43;;;;;;;8.00;3.60;;;14.70;99.90;;;;;;5030245;28;20052;-73
2022/11/01 02:52:20;;;;;;;7.18;4.03;;;14.70;99.90;;;;;;5032554;28;20088;-73
2022/11/01 02:54:54;;;;;;;6.15;3.67;;;14.80;99.90;;;;;;5034510;28;20052;-73
2022/11/01 02:57:40;;;;;;;8.10;3.60;;;14.70;99.90;;;;;;5034198;28;20515;-73
2022/11/01 03:00:25;;;;;;;6.38;3.42;;;14.70;99.90;;;;;;5016692;28;20540;-73
2022/11/01 03:03:11;;;;;;;5.80;3.47;;;14.80;99.90;;;;;;5014295;28;20049;-74
2022/11/01 03:05:48;;;;;;;6.70;3.65;;;14.80;99.90;;;;;;5014343;28;20046;-73
2022/11/01 03:08:19;;;;;;;5.35;3.20;;;14.70;99.90;;;;;;5014159;28;20505;-73
2022/11/01 03:10:47;;;;;;;7.75;3.53;;;14.80;99.90;;;;;;5014105;28;20081;-74
2022/11/01 03:13:27;;;;;;;7.35;3.97;;;14.80;99.90;;;;;;5001529;28;20054;-73
2022/11/01 03:15:58;;;;;;;6.45;3.17;;;14.80;99.90;;;;;;5025712;28;20042;-73
2022/11/01 03:18:34;;;;;;;6.68;3.35;;;14.80;99.90;;;;;;5013622;28;20038;-73
2022/11/01 03:21:16;;;;;;;8.38;3.67;;;14.80;99.90;;;;;;5027654;28;20045;-73
2022/11/01 03:23:50;;;;;;;7.05;3.70;;;14.80;99.90;;;;;;5033694;28;20112;-73
2022/11/01 03:26:24;;;;;;;7.20;3.72;;;14.90;99.90;;;;;;5033712;28;20450;-73
2022/11/01 03:28:56;;;;;;;6.90;3.75;;;14.90;99.90;;;;;;5025439;28;20046;-73
2022/11/01 03:31:27;;;;;;;7.43;3.60;;;14.90;99.90;;;;;;5013595;28;20100;-73
2022/11/01 03:33:59;;;;;;;4.45;3.05;;;14.90;99.90;;;;;;5013066;28;20052;-72
2022/11/01 03:36:30;;;;;;;6.90;3.85;;;15.00;99.90;;;;;;4996229;28;20050;-72
2022/11/01 03:39:00;;;;;;;7.60;3.50;;;15.00;99.90;;;;;;5013695;28;20045;-73
2022/11/01 03:41:31;;;;;;;4.57;3.17;;;15.00;99.90;;;;;;5013734;28;20046;-73
2022/11/01 03:43:58;;;;;;;7.70;4.03;;;15.00;99.90;;;;;;5013254;28;20044;-73
2022/11/01 03:46:25;;;;;;;7.18;3.13;;;15.00;99.90;;;;;;5025197;28;20540;-73
2022/11/01 03:48:50;;;;;;;5.40;3.28;;;15.00;99.90;;;;;;5032401;28;20159;-73
2022/11/01 03:51:16;;;;;;;5.93;3.30;;;15.00;99.90;;;;;;5032649;28;20666;-73
2022/11/01 03:53:42;;;;;;;5.10;3.28;;;14.90;99.90;;;;;;5033159;28;20048;-73
2022/11/01 03:56:08;;;;;;;5.30;2.92;;;14.90;99.90;;;;;;5033194;28;20046;-73
2022/11/01 03:58:44;;;;;;;5.95;3.25;;;14.90;99.90;;;;;;5032810;28;20037;-73
2022/11/01 04:01:12;;;;;;;5.65;3.33;;;14.90;99.90;;;;;;5015526;28;20049;-73
2022/11/01 04:03:37;;;;;;;7.07;3.28;;;14.90;99.90;;;;;;5031985;28;20038;-73
2022/11/01 04:06:04;;;;;;;6.25;3.80;;;14.80;99.90;;;;;;5032800;28;20393;-74
2022/11/01 04:08:30;;;;;;;7.88;2.92;;;14.80;99.90;;;;;;5032768;28;20485;-75
2022/11/01 04:10:56;;;;;;;7.25;3.65;;;14.80;99.90;;;;;;5032912;28;20049;-74
2022/11/01 04:13:22;;;;;;;6.78;3.60;;;14.90;99.90;;;;;;5032716;28;20037;-74
2022/11/01 04:21:19;;;;;;;7.40;2.83;;;14.80;99.90;;;;;;5014588;28;20053;-74
2022/11/01 04:23:45;;;;;;;6.38;3.03;;;14.80;99.90;;;;;;4995345;28;20445;-74
2022/11/01 04:26:12;;;;;;;6.80;2.90;;;14.80;99.90;;;;;;4996414;28;20050;-74
2022/11/01 04:28:38;;;;;;;4.60;2.50;;;14.90;99.90;;;;;;5022638;28;20045;-74
2022/11/01 04:31:05;;;;;;;6.80;3.50;;;14.90;99.90;;;;;;5019877;28;20042;-74
2022/11/01 04:33:31;;;;;;;7.20;3.22;;;15.00;99.90;;;;;;5011712;28;20045;-74
2022/11/01 04:35:56;;;;;;;4.03;2.83;;;15.00;99.90;;;;;;5028662;28;20140;-74
2022/11/01 04:38:22;;;;;;;5.68;2.70;;;15.10;99.90;;;;;;5014791;28;20045;-74
2022/11/01 04:40:48;;;;;;;5.60;3.28;;;15.20;99.90;;;;;;5032021;28;20064;-74
2022/11/01 04:43:14;;;;;;;5.45;3.05;;;15.20;99.90;;;;;;5004629;28;20483;-75
2022/11/01 04:45:40;;;;;;;4.85;3.08;;;15.30;99.90;;;;;;4992569;28;20081;-74
2022/11/01 04:48:15;;;;;;;5.10;2.90;;;15.40;99.90;;;;;;4992524;28;20049;-74
2022/11/01 04:50:41;;;;;;;7.63;3.13;;;15.50;99.90;;;;;;4992750;28;20046;-74
2022/11/01 04:53:08;;;;;;;6.20;2.72;;;15.60;99.90;;;;;;4992828;28;20046;-74
2022/11/01 04:55:34;;;;;;;3.85;2.55;;;15.70;99.90;;;;;;4991528;28;20422;-74
2022/11/01 04:57:59;;;;;;;5.70;2.97;;;15.70;99.90;;;;;;4994494;28;20038;-74
2022/11/01 05:00:25;;;;;;;4.75;2.55;;;15.80;99.90;;;;;;5022681;28;20080;-74
2022/11/01 05:02:51;;;;;;;4.13;2.50;;;15.70;99.90;;;;;;5019234;28;20046;-74
2022/11/01 05:05:18;;;;;;;4.72;2.97;;;15.80;99.90;;;;;;5031860;28;20493;-74
2022/11/01 05:07:44;;;;;;;5.68;2.70;;;15.80;99.90;;;;;;5019810;28;20049;-74
2022/11/01 05:10:11;;;;;;;3.65;2.42;;;15.80;99.90;;;;;;5011960;28;20038;-73
2022/11/01 05:12:36;;;;;;;4.07;2.95;;;15.80;99.90;;;;;;5011866;28;20046;-72
2022/11/01 05:15:03;;;;;;;4.88;2.60;;;15.80;99.90;;;;;;5013536;28;20478;-74
2022/11/01 05:17:29;;;;;;;4.75;2.75;;;15.90;99.90;;;;;;5031394;28;20124;-73
2022/11/01 05:19:55;;;;;;;5.28;2.88;;;15.90;99.90;;;;;;5013799;28;20120;-74
2022/11/01 05:22:20;;;;;;;6.45;2.63;;;15.90;99.90;;;;;;5031657;28;20180;-73
2022/11/01 05:24:46;;;;;;;4.75;2.75;;;15.90;99.90;;;;;;5031698;28;20079;-74
2022/11/01 05:27:12;;;;;;;3.88;2.30;;;16.00;99.90;;;;;;5013648;28;20038;-75
2022/11/01 05:29:37;;;;;;;4.57;2.50;;;16.10;99.90;;;;;;5031440;28;20390;-74
2022/11/01 05:32:03;;;;;;;4.25;2.50;;;16.10;99.90;;;;;;5030049;28;20045;-74
2022/11/01 05:34:29;;;;;;;4.80;2.47;;;16.10;99.90;;;;;;5011657;28;20089;-73
2022/11/01 05:36:54;;;;;;;4.53;2.72;;;16.10;99.90;;;;;;5011619;28;20046;-74
2022/11/01 05:39:20;;;;;;;6.38;2.80;;;16.10;99.90;;;;;;5011755;28;20084;-74
2022/11/01 05:41:46;;;;;;;7.40;2.95;;;16.20;99.90;;;;;;5011311;28;20080;-74
2022/11/01 05:44:11;;;;;;;3.35;2.35;;;16.20;99.90;;;;;;5011053;28;20324;-75
2022/11/01 05:46:37;;;;;;;5.13;2.72;;;16.20;99.90;;;;;;5022196;28;20044;-74
2022/11/01 05:49:03;;;;;;;6.50;2.67;;;16.30;99.90;;;;;;5017960;28;20054;-74
2022/11/01 05:51:28;;;;;;;3.17;2.33;;;16.30;99.90;;;;;;5031298;28;20530;-74
2022/11/01 05:53:54;;;;;;;4.15;2.20;;;16.30;99.90;;;;;;5019868;28;20076;-74
2022/11/01 05:56:20;;;;;;;4.55;2.60;;;16.30;99.90;;;;;;5011334;28;20061;-74
2022/11/01 05:58:46;;;;;;;5.43;2.50;;;16.30;99.90;;;;;;5012872;28;20046;-74
2022/11/01 06:01:12;;;;;;;4.50;2.28;;;16.20;99.90;;;;;;5019393;28;20041;-74
2022/11/01 06:03:37;;;;;;;3.50;2.30;;;16.10;99.90;;;;;;5025027;28;20049;-74
2022/11/01 06:06:04;;;;;;;3.42;2.17;;;16.20;99.90;;;;;;5031056;28;20042;-73
2022/11/01 06:08:30;;;;;;;3.97;2.20;;;16.10;99.90;;;;;;5012292;28;20034;-74
2022/11/01 06:11:04;;;;;;;5.03;2.28;;;16.00;99.90;;;;;;5011345;28;20392;-75
2022/11/01 06:13:31;;;;;;;5.85;2.30;;;16.00;99.90;;;;;;4977441;28;20053;-74
2022/11/01 06:16:02;;;;;;;3.30;1.50;;;15.90;99.90;;;;;;5011464;28;20613;-73
2022/11/01 06:18:27;;;;;;;3.40;2.05;;;15.90;99.90;;;;;;5030446;28;20051;-74
2022/11/01 06:20:53;;;;;;;3.92;1.90;;;16.00;99.90;;;;;;5030606;28;20355;-74
2022/11/01 06:23:19;;;;;;;3.30;1.73;;;15.90;99.90;;;;;;5030937;28;20042;-75
2022/11/01 06:25:45;;;;;;;3.75;1.58;;;15.80;99.90;;;;;;5030608;28;20049;-74
2022/11/01 06:28:11;;;;;;;3.30;1.50;;;15.80;99.90;;;;;;5025344;28;20092;-75
2022/11/01 06:30:39;;;;;;;2.90;1.33;;;15.70;99.90;;;;;;5019621;28;20049;-75
2022/11/01 06:33:06;;;;;;;3.80;1.00;;;15.60;99.90;;;;;;5034717;28;20052;-75
2022/11/01 06:35:32;;;;;;;2.00;0.93;;;15.50;99.90;;;;;;5024192;28;20069;-74
2022/11/01 06:38:02;;;;;;;2.35;1.00;;;15.40;99.90;;;;;;5014051;28;20214;-75
2022/11/01 06:40:28;;;;;;;2.28;0.85;;;15.20;99.90;;;;;;5014548;28;21136;-75
2022/11/01 06:43:02;;;;;;;1.67;0.93;;;15.10;99.90;;;;;;5015143;28;20078;-75
2022/11/01 06:45:29;;;;;;;1.83;0.80;;;15.10;99.90;;;;;;5016667;28;20091;-75
2022/11/01 06:47:55;;;;;;;2.25;1.00;;;15.00;99.90;;;;;;5034140;28;20041;-74
2022/11/01 06:50:21;;;;;;;1.95;0.80;;;15.00;99.90;;;;;;5033568;28;20136;-74
2022/11/01 06:52:47;;;;;;;2.05;0.68;;;14.90;99.90;;;;;;5034296;28;20094;-74
2022/11/01 06:55:12;;;;;;;1.42;0.70;;;14.80;99.90;;;;;;5034058;28;20482;-75
2022/11/01 06:57:38;;;;;;;1.70;0.70;;;14.80;99.90;;;;;;5034128;28;20041;-75
2022/11/01 07:00:05;;;;;;;2.35;0.80;;;14.70;99.90;;;;;;5032184;28;20049;-74
2022/11/01 07:02:31;;;;;;;2.10;0.77;;;14.60;99.90;;;;;;4996875;28;20359;-75
2022/11/01 07:04:56;;;;;;;2.28;0.70;;;14.60;99.90;;;;;;5013992;28;20099;-74
2022/11/01 07:07:22;;;;;;;1.30;0.70;;;14.40;99.90;;;;;;5013889;28;20038;-73
2022/11/01 07:09:48;;;;;;;1.75;1.00;;;14.40;99.90;;;;;;5014278;28;20505;-74
2022/11/01 07:12:13;;;;;;;1.52;0.68;;;14.40;99.90;;;;;;5014158;28;20073;-66
2022/11/01 07:14:39;;;;;;;2.78;0.70;;;14.40;99.90;;;;;;5019259;28;20041;-66
2022/11/01 07:17:04;;;;;;;2.75;0.80;;;14.30;99.90;;;;;;5017710;28;20038;-66
2022/11/01 07:19:30;;;;;;;1.92;0.70;;;14.20;99.90;;;;;;5031687;28;20084;-65
2022/11/01 07:21:56;;;;;;;1.70;1.25;;;14.10;99.90;;;;;;5030518;28;20037;-65
2022/11/01 07:24:22;;;;;;;2.00;0.85;;;14.10;99.90;;;;;;5013503;28;20487;-65
2022/11/01 07:26:47;;;;;;;1.75;0.80;;;14.10;99.90;;;;;;5013692;28;20402;-66
2022/11/01 07:29:13;;;;;;;1.45;0.68;;;14.10;99.90;;;;;;5013768;28;20057;-66
2022/11/01 07:31:40;;;;;;;2.13;0.82;;;14.20;99.90;;;;;;5008838;28;20041;-65
2022/11/01 07:34:05;;;;;;;2.40;0.70;;;14.20;99.90;;;;;;5033585;28;20041;-66
2022/11/01 07:36:31;;;;;;;1.55;0.70;;;14.10;99.90;;;;;;5033315;28;20044;-65
2022/11/01 07:38:57;;;;;;;1.77;0.63;;;14.00;99.90;;;;;;5033252;28;20556;-66
2022/11/01 07:41:22;;;;;;;2.17;0.70;;;14.10;99.90;;;;;;5032975;28;20057;-65
2022/11/01 07:43:48;;;;;;;1.98;0.82;;;14.10;99.90;;;;;;5033361;28;20099;-66
2022/11/01 07:46:14;;;;;;;3.03;0.80;;;14.10;99.90;;;;;;5033246;28;20042;-65
2022/11/01 07:48:39;;;;;;;0.90;0.50;;;14.20;99.90;;;;;;5015785;28;20046;-66
2022/11/01 07:51:06;;;;;;;2.15;0.85;;;14.20;99.90;;;;;;4993899;28;20042;-66
2022/11/01 07:53:32;;;;;;;1.80;0.60;;;14.20;99.90;;;;;;4993922;28;20054;-66
2022/11/01 07:56:00;;;;;;;2.60;0.70;;;14.20;99.90;;;;;;4997341;28;20038;-66
2022/11/01 07:58:25;;;;;;;1.58;0.70;;;14.20;99.90;;;;;;5013086;28;20060;-66
2022/11/01 08:00:51;;;;;;;2.50;0.70;;;14.30;99.90;;;;;;5013246;28;20057;-65
2022/11/01 08:03:21;;;;;;;2.92;0.80;;;14.30;99.90;;;;;;5013005;28;20073;-66
2022/11/01 08:05:47;;;;;;;2.65;0.85;;;14.30;99.90;;;;;;4995399;28;20046;-66
2022/11/01 08:08:14;;;;;;;3.75;1.02;;;14.30;99.90;;;;;;5008504;28;20045;-66
2022/11/01 08:10:41;;;;;;;3.00;0.85;;;14.40;99.90;;;;;;5009349;28;20046;-65
2022/11/01 08:13:17;;;;;;;3.67;1.17;;;14.40;99.90;;;;;;4994734;28;20130;-66
2022/11/01 08:15:44;;;;;;;2.38;0.80;;;14.40;99.90;;;;;;4988818;28;20062;-65
2022/11/01 08:18:10;;;;;;;5.00;1.20;;;14.40;99.90;;;;;;5003900;28;20084;-77
2022/11/01 08:20:36;;;;;;;2.55;1.00;;;14.10;99.90;;;;;;5012098;28;20109;-77
2022/11/01 08:23:02;;;;;;;3.50;1.00;;;14.30;99.90;;;;;;5022681;28;20054;-77
2022/11/01 08:25:27;;;;;;;2.45;1.05;;;14.40;99.90;;;;;;5012257;28;20436;-77
2022/11/01 08:27:53;;;;;;;4.15;0.90;;;14.40;99.90;;;;;;4995060;28;20060;-77
2022/11/01 08:30:19;;;;;;;4.70;1.00;;;14.40;99.90;;;;;;5010784;28;20046;-75
2022/11/01 08:32:45;;;;;;;3.70;1.17;;;14.40;99.90;;;;;;5011849;28;20060;-74
2022/11/01 08:35:11;;;;;;;4.70;1.10;;;14.50;99.90;;;;;;5012117;28;20491;-75
2022/11/01 08:37:46;;;;;;;3.75;1.10;;;14.50;99.90;;;;;;5011924;28;20045;-75
2022/11/01 08:40:12;;;;;;;3.88;1.20;;;14.50;99.90;;;;;;5011768;28;20107;-76
2022/11/01 08:42:38;;;;;;;4.68;1.15;;;14.50;99.90;;;;;;4994676;28;20132;-75
2022/11/01 08:45:05;;;;;;;3.75;1.10;;;14.40;99.90;;;;;;5011850;28;20053;-75
2022/11/01 08:47:30;;;;;;;4.93;1.13;;;14.50;99.90;;;;;;5012387;28;20050;-75
2022/11/01 08:49:56;;;;;;;4.28;1.27;;;14.60;99.90;;;;;;4993133;28;20088;-76
2022/11/01 08:52:22;;;;;;;4.13;1.30;;;14.60;99.90;;;;;;5011288;28;20056;-74
2022/11/01 08:54:47;;;;;;;5.75;1.10;;;14.70;99.90;;;;;;5011648;28;20049;-74
2022/11/01 08:57:14;;;;;;;5.18;1.30;;;14.70;99.90;;;;;;4994004;28;20104;-75
2022/11/01 08:59:40;;;;;;;3.75;1.20;;;14.70;99.90;;;;;;5011839;28;20089;-75
2022/11/01 09:02:10;;;;;;;7.47;1.55;;;14.70;99.90;;;;;;5011910;28;20124;-75
2022/11/01 09:04:35;;;;;;;4.80;1.25;;;14.70;99.90;;;;;;5011774;28;20085;-75
2022/11/01 09:07:01;;;;;;;5.13;1.27;;;14.70;99.90;;;;;;5011853;28;20108;-74
2022/11/01 09:09:28;;;;;;;6.22;1.48;;;14.70;99.90;;;;;;5011529;28;20049;-75
2022/11/01 09:11:54;;;;;;;2.83;1.23;;;14.80;99.90;;;;;;5011775;28;20049;-74
2022/11/01 09:14:23;;;;;;;4.55;1.30;;;14.80;99.90;;;;;;5017553;28;20501;-75
2022/11/01 09:16:51;;;;;;;5.68;1.52;;;14.80;99.90;;;;;;5031175;28;20045;-74
2022/11/01 09:19:17;;;;;;;6.13;1.50;;;14.70;99.90;;;;;;5029740;28;20147;-73
2022/11/01 09:21:44;;;;;;;4.32;1.40;;;14.80;99.90;;;;;;5027500;28;20042;-74
2022/11/01 09:24:11;;;;;;;7.68;1.55;;;14.80;99.90;;;;;;4994068;28;20069;-74
2022/11/01 09:26:37;;;;;;;5.35;1.33;;;14.70;99.90;;;;;;4993651;28;20046;-74
2022/11/01 09:29:03;;;;;;;5.28;1.45;;;14.80;99.90;;;;;;4993530;28;20115;-74
2022/11/01 09:31:28;;;;;;;5.00;1.30;;;14.80;99.90;;;;;;5011345;28;20048;-72
2022/11/01 09:33:59;;;;;;;5.15;1.33;;;14.70;99.90;;;;;;5011288;28;20395;-77
2022/11/01 09:36:26;;;;;;;5.32;1.33;;;14.70;99.90;;;;;;4993714;28;20054;-75
2022/11/01 09:38:53;;;;;;;6.65;1.45;;;14.80;99.90;;;;;;5010482;28;20061;-75
2022/11/01 09:41:46;;;;;;;6.43;1.38;;;14.80;99.90;;;;;;5010201;28;20172;-74
2022/11/01 09:44:17;;;;;;;4.05;1.65;;;15.10;99.90;;;;;;4993123;28;20140;-76
2022/11/01 09:46:48;;;;;;;5.43;1.20;;;15.40;99.90;;;;;;5010641;28;20053;-76
2022/11/01 09:49:27;;;;;;;5.93;1.55;;;15.60;99.90;;;;;;5010911;28;20050;-75
2022/11/01 09:51:53;;;;;;;4.55;1.30;;;15.70;99.90;;;;;;4991240;28;20506;-75
2022/11/01 09:54:22;;;;;;;3.22;1.02;;;15.80;99.90;;;;;;4991552;28;20050;-76
2022/11/01 09:57:07;;;;;;;4.85;1.40;;;15.90;99.90;;;;;;4991728;28;20046;-75
2022/11/01 09:59:47;;;;;;;5.03;1.00;;;15.90;99.90;;;;;;4991635;28;20068;-76
2022/11/01 10:02:44;;;;;;;5.10;1.58;;;16.00;99.90;;;;;;4993391;28;20100;-76
2022/11/01 10:05:34;;;;;;;5.80;1.70;;;16.10;99.90;;;;;;4995599;28;20526;-76
2022/11/01 10:08:29;;;;;;;5.45;1.90;;;16.20;99.90;;;;;;4995562;28;20050;-76
2022/11/01 10:11:27;;;;;;;6.22;1.48;;;16.30;99.90;;;;;;4986485;28;20527;-75
2022/11/01 10:14:17;;;;;;;4.72;1.50;;;16.30;99.90;;;;;;4975835;28;20495;-75
2022/11/01 10:17:02;;;;;;;4.18;1.50;;;16.20;99.90;;;;;;5014938;28;20050;-75
2022/11/01 10:19:32;;;;;;;4.68;1.40;;;16.20;99.90;;;;;;5014590;28;20058;-75
2022/11/01 10:22:04;;;;;;;5.90;1.70;;;16.30;99.90;;;;;;5020035;28;20049;-74
2022/11/01 10:24:40;;;;;;;5.45;1.33;;;16.30;99.90;;;;;;5034362;28;20099;-74
2022/11/01 10:27:11;;;;;;;4.18;1.20;;;16.10;99.90;;;;;;5034374;28;20053;-75
2022/11/01 10:30:01;;;;;;;7.30;1.80;;;15.90;99.90;;;;;;5033767;28;20490;-74
2022/11/01 10:32:49;;;;;;;4.95;1.23;;;16.10;99.90;;;;;;4993123;28;20176;-75
2022/11/01 10:35:29;;;;;;;4.68;1.33;;;16.20;99.90;;;;;;4994778;28;20046;-77
2022/11/01 10:38:16;;;;;;;5.15;1.60;;;16.40;99.90;;;;;;5004776;28;20454;-79
2022/11/01 10:40:54;;;;;;;4.70;1.25;;;16.00;99.90;;;;;;4996405;28;20058;-78
2022/11/01 10:43:22;;;;;;;4.00;1.20;;;15.90;99.90;;;;;;5013974;28;20462;-77
2022/11/01 10:45:52;;;;;;;4.32;1.15;;;15.80;99.90;;;;;;4995988;28;20088;-78
2022/11/01 10:48:40;;;;;;;6.30;1.60;;;15.60;99.90;;;;;;5013998;28;20049;-78
2022/11/01 10:51:07;;;;;;;4.75;1.60;;;15.50;99.90;;;;;;5013544;28;20053;-79
2022/11/01 10:53:37;;;;;;;6.65;1.92;;;15.50;99.90;;;;;;5013120;28;20633;-77
2022/11/01 10:56:11;;;;;;;5.57;1.60;;;15.40;99.90;;;;;;5012333;28;20610;-78
2022/11/01 10:59:11;;;;;;;3.85;1.40;;;15.50;99.90;;;;;;5013206;28;20049;-79
2022/11/01 11:01:42;;;;;;;9.45;2.00;;;15.70;99.90;;;;;;5000371;28;20065;-74
2022/11/01 11:04:15;;;;;;;5.28;1.58;;;15.90;99.90;;;;;;5013366;28;20046;-74
2022/11/01 11:06:42;;;;;;;4.22;1.65;;;15.70;99.90;;;;;;5010004;28;20049;-71
2022/11/01 11:09:33;;;;;;;5.22;2.03;;;15.70;99.90;;;;;;4996232;28;20050;-76
2022/11/01 11:12:09;;;;;;;5.03;1.50;;;15.60;99.90;;;;;;5010514;28;20066;-76
2022/11/01 11:14:35;;;;;;;4.03;1.33;;;15.60;99.90;;;;;;5008464;28;20107;-77
2022/11/01 11:17:02;;;;;;;6.63;1.83;;;15.50;99.90;;;;;;5008820;28;20506;-78
2022/11/01 11:19:28;;;;;;;7.53;1.35;;;15.50;99.90;;;;;;4993790;28;20054;-76
2022/11/01 11:21:55;;;;;;;5.28;1.50;;;15.50;99.90;;;;;;5000994;28;20149;-78
2022/11/01 11:24:23;;;;;;;7.68;1.88;;;15.50;99.90;;;;;;5032134;28;20451;-77
2022/11/01 11:26:53;;;;;;;7.07;2.00;;;15.50;99.90;;;;;;5021081;28;20104;-77
2022/11/01 11:29:47;;;;;;;5.93;1.30;;;15.40;99.90;;;;;;5013528;28;20064;-77
2022/11/01 11:32:17;;;;;;;6.22;1.35;;;15.40;99.90;;;;;;5013254;28;20054;-77
2022/11/01 11:34:55;;;;;;;4.35;1.67;;;15.40;99.90;;;;;;5023686;28;20064;-78
2022/11/01 11:37:23;;;;;;;6.95;1.40;;;15.30;99.90;;;;;;5017412;28;20289;-77
2022/11/01 11:40:27;;;;;;;6.63;1.60;;;15.40;99.90;;;;;;5032736;28;20073;-76
2022/11/01 11:43:21;;;;;;;6.20;1.88;;;15.50;99.90;;;;;;4996916;28;20101;-77
2022/11/01 11:46:11;;;;;;;7.53;1.63;;;15.60;99.90;;;;;;4993438;28;20143;-76
2022/11/01 11:48:55;;;;;;;7.32;1.73;;;15.60;99.90;;;;;;4993088;28;20136;-76
2022/11/01 11:51:23;;;;;;;7.38;1.52;;;15.70;99.90;;;;;;5005669;28;20128;-76
2022/11/01 11:54:17;;;;;;;5.78;2.22;;;15.60;99.90;;;;;;5012356;28;20522;-75
2022/11/01 11:56:44;;;;;;;4.80;1.42;;;15.70;99.90;;;;;;5012902;28;20046;-76
2022/11/01 11:59:37;;;;;;;5.57;1.92;;;15.70;99.90;;;;;;5012896;28;20062;-76
2022/11/01 12:02:12;;;;;;;5.93;1.60;;;15.80;99.90;;;;;;5009869;28;20057;-75
2022/11/01 12:04:46;;;;;;;4.85;1.60;;;15.80;99.90;;;;;;5012902;28;20056;-76
2022/11/01 12:07:27;;;;;;;5.65;1.70;;;15.80;99.90;;;;;;5008965;28;20451;-76
2022/11/01 12:09:54;;;;;;;4.80;1.27;;;15.80;99.90;;;;;;4991690;28;20049;-76
2022/11/01 12:12:30;;;;;;;5.72;1.60;;;15.70;99.90;;;;;;4992509;28;20053;-78
2022/11/01 12:14:57;;;;;;;5.05;1.52;;;15.70;99.90;;;;;;4993455;28;20054;-79
2022/11/01 12:17:31;;;;;;;5.57;1.30;;;15.70;99.90;;;;;;4992802;28;20053;-79
2022/11/01 12:20:32;;;;;;;7.30;1.48;;;15.80;99.90;;;;;;4991713;28;20062;-77
2022/11/01 12:23:22;;;;;;;4.63;1.38;;;15.90;99.90;;;;;;4992300;28;20069;-76
2022/11/01 12:25:49;;;;;;;5.35;1.25;;;15.90;99.90;;;;;;4991777;28;20035;-78
2022/11/01 12:28:40;;;;;;;5.00;1.20;;;15.90;99.90;;;;;;4992847;28;20492;-78
2022/11/01 12:31:16;;;;;;;4.47;1.27;;;15.90;99.90;;;;;;4992796;28;20050;-76
2022/11/01 12:34:05;;;;;;;5.18;1.45;;;15.80;99.90;;;;;;4992778;28;20050;-78
2022/11/01 12:36:48;;;;;;;4.75;1.27;;;15.80;99.90;;;;;;4991286;28;20046;-78
2022/11/01 12:39:33;;;;;;;4.35;1.15;;;15.80;99.90;;;;;;4992369;28;20054;-76
2022/11/01 12:42:03;;;;;;;5.38;1.20;;;15.80;99.90;;;;;;4999983;28;20065;-76
2022/11/01 12:44:36;;;;;;;3.35;1.15;;;15.90;99.90;;;;;;5011027;28;20046;-78
2022/11/01 12:47:13;;;;;;;3.22;1.05;;;15.80;99.90;;;;;;5011880;28;20048;-77
2022/11/01 12:50:02;;;;;;;4.80;1.02;;;15.90;99.90;;;;;;5011493;28;20049;-77
2022/11/01 12:52:45;;;;;;;4.65;1.33;;;15.90;99.90;;;;;;5011655;28;20054;-78
2022/11/01 12:55:11;;;;;;;4.03;1.30;;;15.90;99.90;;;;;;5010594;28;20049;-77
2022/11/01 12:57:38;;;;;;;3.13;1.00;;;16.00;99.90;;;;;;5010608;28;20590;-79
2022/11/01 13:00:06;;;;;;;3.88;1.10;;;16.00;99.90;;;;;;5010502;28;20103;-77
2022/11/01 13:02:59;;;;;;;4.57;1.48;;;16.00;99.90;;;;;;5010425;28;20160;-75
2022/11/01 13:05:40;;;;;;;4.25;1.20;;;16.00;99.90;;;;;;4992407;28;20099;-75
2022/11/01 13:08:12;;;;;;;3.00;0.80;;;15.90;99.90;;;;;;5001437;28;20069;-76
2022/11/01 13:10:45;;;;;;;6.10;1.25;;;15.90;99.90;;;;;;5008367;28;20089;-76